createdAt,value
2022-11-25T00:00:02.037Z,996.77
2022-11-25T00:05:02.079Z,996.83
2022-11-25T00:10:02.167Z,996.88
2022-11-25T00:15:01.767Z,996.82
2022-11-25T00:20:01.695Z,996.9
2022-11-25T00:25:01.567Z,996.6
2022-11-25T00:30:01.593Z,996.72
2022-11-25T00:35:01.659Z,996.62
2022-11-25T00:40:01.529Z,996.42
2022-11-25T00:45:02.220Z,996.4
2022-11-25T00:50:01.998Z,996.35
2022-11-25T00:55:01.781Z,996.39
2022-11-25T01:00:01.393Z,996.36
2022-11-25T01:05:01.415Z,996.27
2022-11-25T01:10:01.524Z,996.26
2022-11-25T01:15:01.426Z,996.23
2022-11-25T01:20:01.669Z,996.13
2022-11-25T01:25:01.706Z,996.14
2022-11-25T01:30:01.691Z,996.21
2022-11-25T01:35:01.724Z,996.22
2022-11-25T01:40:01.780Z,996.16
2022-11-25T01:45:01.897Z,996.21
2022-11-25T01:50:01.957Z,996.18
2022-11-25T01:55:01.759Z,996.25
2022-11-25T02:00:01.701Z,996.25
2022-11-25T02:05:01.626Z,996.09
2022-11-25T02:10:01.891Z,996.01
2022-11-25T02:15:01.317Z,995.99
2022-11-25T02:20:01.986Z,995.94
2022-11-25T02:25:01.942Z,995.91
2022-11-25T02:30:07.037Z,995.89
2022-11-25T02:35:02.196Z,995.88
2022-11-25T02:40:02.200Z,995.85
2022-11-25T02:45:01.925Z,995.78
2022-11-25T02:50:01.771Z,995.91
2022-11-25T02:55:01.714Z,995.87
2022-11-25T03:00:01.539Z,995.88
2022-11-25T03:05:01.711Z,995.91
2022-11-25T03:10:01.501Z,995.86
2022-11-25T03:15:02.266Z,995.79
2022-11-25T03:20:02.236Z,995.77
2022-11-25T03:25:01.979Z,995.8
2022-11-25T03:30:01.723Z,995.73
2022-11-25T03:35:01.954Z,995.74
2022-11-25T03:40:01.894Z,995.93
2022-11-25T03:45:02.482Z,995.86
2022-11-25T03:50:01.995Z,995.78
2022-11-25T03:55:01.936Z,995.82
2022-11-25T04:00:02.048Z,996.01
2022-11-25T04:05:02.078Z,996.15
2022-11-25T04:10:01.435Z,996.21
2022-11-25T04:15:02.376Z,996.19
2022-11-25T04:20:01.696Z,996.2
2022-11-25T04:25:01.964Z,996.2
2022-11-25T04:30:01.955Z,996.27
2022-11-25T04:35:01.556Z,996.31
2022-11-25T04:40:01.735Z,996.42
2022-11-25T04:45:21.958Z,996.51
2022-11-25T04:50:02.260Z,996.43
2022-11-25T04:55:02.250Z,996.51
2022-11-25T05:00:01.740Z,996.62
2022-11-25T05:05:01.895Z,996.66
2022-11-25T05:10:01.442Z,996.64
2022-11-25T05:15:02.018Z,996.73
2022-11-25T05:20:02.290Z,996.79
2022-11-25T05:25:01.971Z,996.79
2022-11-25T05:30:01.943Z,996.87
2022-11-25T05:35:02.121Z,996.9
2022-11-25T05:40:02.238Z,996.92
2022-11-25T05:45:02.024Z,996.92
2022-11-25T05:50:02.100Z,996.93
2022-11-25T05:55:01.879Z,996.97
2022-11-25T06:00:02.087Z,997.06
2022-11-25T06:05:02.174Z,997.19
2022-11-25T06:10:03.439Z,997.26
2022-11-25T06:15:02.462Z,997.32
2022-11-25T06:20:01.480Z,997.33
2022-11-25T06:25:04.135Z,997.41
2022-11-25T06:30:02.314Z,997.35
2022-11-25T06:35:02.271Z,997.45
2022-11-25T06:40:02.052Z,997.54
2022-11-25T06:45:02.394Z,997.56
2022-11-25T06:50:02.122Z,997.62
2022-11-25T06:55:02.379Z,997.69
2022-11-25T07:00:02.285Z,997.71
2022-11-25T07:05:02.170Z,997.69
2022-11-25T07:10:01.889Z,997.68
2022-11-25T07:15:01.554Z,997.71
2022-11-25T07:20:02.100Z,997.78
2022-11-25T07:25:02.305Z,997.76
2022-11-25T07:31:28.272Z,997.81
2022-11-25T07:35:01.865Z,997.87
2022-11-25T07:40:01.831Z,997.95
2022-11-25T07:45:01.958Z,998.07
2022-11-25T07:50:01.946Z,998.18
2022-11-25T07:55:02.196Z,998.24
2022-11-25T08:00:01.965Z,998.28
2022-11-25T08:05:02.249Z,998.35
2022-11-25T08:10:02.314Z,998.39
2022-11-25T08:15:02.112Z,998.44
2022-11-25T08:20:02.215Z,998.49
2022-11-25T08:25:01.777Z,998.48
2022-11-25T08:30:02.325Z,998.57
2022-11-25T08:35:01.955Z,998.61
2022-11-25T08:40:02.037Z,998.64
2022-11-25T08:45:02.147Z,998.75
2022-11-25T08:50:02.307Z,998.9
2022-11-25T08:55:01.684Z,999
2022-11-25T09:00:02.036Z,999
2022-11-25T09:05:02.371Z,999.07
2022-11-25T09:10:01.778Z,999.07
2022-11-25T09:15:02.099Z,999.09
2022-11-25T09:20:02.406Z,999.14
2022-11-25T09:25:02.187Z,999.19
2022-11-25T09:30:02.321Z,999.33
2022-11-25T09:35:02.377Z,999.44
2022-11-25T09:40:01.536Z,999.46
2022-11-25T09:45:01.438Z,999.55
2022-11-25T09:50:02.240Z,999.62
2022-11-25T09:55:01.961Z,999.6
2022-11-25T10:00:02.129Z,999.65
2022-11-25T10:05:01.574Z,999.77
2022-11-25T10:10:01.978Z,999.84
2022-11-25T10:15:01.805Z,999.84
2022-11-25T10:20:01.863Z,999.89
2022-11-25T10:25:02.099Z,999.95
2022-11-25T10:30:01.608Z,999.86
2022-11-25T10:35:01.887Z,999.93
2022-11-25T10:40:01.990Z,999.96
2022-11-25T10:45:02.234Z,999.98
2022-11-25T10:50:01.442Z,1000.08
2022-11-25T10:55:02.132Z,1000.16
2022-11-25T11:00:01.575Z,1000.27
2022-11-25T11:05:01.960Z,1000.32
2022-11-25T11:10:01.957Z,1000.39
2022-11-25T11:15:01.957Z,1000.55
2022-11-25T11:20:02.227Z,1000.58
2022-11-25T11:25:01.609Z,1000.64
2022-11-25T11:30:02.208Z,1000.75
2022-11-25T11:35:02.090Z,1000.71
2022-11-25T11:40:01.931Z,1000.87
2022-11-25T11:45:01.682Z,1000.85
2022-11-25T11:50:01.429Z,1000.86
2022-11-25T11:55:01.876Z,1000.82
2022-11-25T12:00:02.152Z,1000.84
2022-11-25T12:05:01.447Z,1000.94
2022-11-25T12:10:02.374Z,1000.75
2022-11-25T12:15:02.301Z,1000.85
2022-11-25T12:20:02.303Z,1001.02
2022-11-25T12:25:02.270Z,1001.1
2022-11-25T12:30:01.889Z,1001.16
2022-11-25T12:35:02.209Z,1001.19
2022-11-25T12:40:02.101Z,1001.22
2022-11-25T12:45:01.417Z,1001.32
2022-11-25T12:50:02.150Z,1001.37
2022-11-25T12:55:02.382Z,1001.41
2022-11-25T13:00:32.916Z,1001.46
2022-11-25T13:10:02.426Z,1001.61
2022-11-25T13:10:55.632Z,1001.52
2022-11-25T13:15:02.947Z,1001.66
2022-11-25T13:20:02.211Z,1001.74
2022-11-25T13:25:01.577Z,1001.74
2022-11-25T13:30:02.172Z,1001.75
2022-11-25T13:35:01.972Z,1001.75
2022-11-25T13:40:01.537Z,1001.81
2022-11-25T13:45:02.171Z,1001.87
2022-11-25T13:50:02.040Z,1001.94
2022-11-25T13:55:02.130Z,1001.93
2022-11-25T14:00:02.092Z,1002.09
2022-11-25T14:05:02.285Z,1002.08
2022-11-25T14:10:01.463Z,1002.24
2022-11-25T14:15:02.154Z,1002.32
2022-11-25T14:20:02.497Z,1002.38
2022-11-25T14:25:02.099Z,1002.46
2022-11-25T14:30:02.365Z,1002.45
2022-11-25T14:35:01.460Z,1002.49
2022-11-25T14:40:02.041Z,1002.52
2022-11-25T14:45:01.917Z,1002.54
2022-11-25T14:50:33.670Z,1002.58
2022-11-25T14:55:02.075Z,1002.65
2022-11-25T15:00:02.382Z,1002.74
2022-11-25T15:05:01.464Z,1002.8
2022-11-25T15:10:02.251Z,1002.84
2022-11-25T15:15:02.410Z,1002.84
2022-11-25T15:20:02.061Z,1002.91
2022-11-25T15:25:02.317Z,1002.9
2022-11-25T15:30:02.491Z,1003.09
2022-11-25T15:35:01.440Z,1003.2
2022-11-25T15:40:01.905Z,1003.24
2022-11-25T15:45:05.260Z,1003.38
2022-11-25T15:50:01.410Z,1003.47
2022-11-25T15:55:02.292Z,1003.55
2022-11-25T16:00:02.469Z,1003.74
2022-11-25T16:05:04.672Z,1003.77
2022-11-25T16:10:01.475Z,1003.89
2022-11-25T16:15:02.305Z,1004
2022-11-25T16:20:02.366Z,1004.11
2022-11-25T16:25:02.897Z,1004.19
2022-11-25T16:30:01.923Z,1004.28
2022-11-25T16:35:02.206Z,1004.39
2022-11-25T16:40:02.355Z,1004.37
2022-11-25T16:45:02.480Z,1004.5
2022-11-25T16:50:01.744Z,1004.55
2022-11-25T16:55:01.982Z,1004.61
2022-11-25T17:00:02.112Z,1004.72
2022-11-25T17:05:02.076Z,1004.72
2022-11-25T17:10:01.466Z,1004.87
2022-11-25T17:15:02.294Z,1004.85
2022-11-25T17:20:02.372Z,1004.88
2022-11-25T17:25:02.448Z,1004.88
2022-11-25T17:30:02.351Z,1005.05
2022-11-25T17:35:01.532Z,1005.07
2022-11-25T17:40:01.485Z,1005.18
2022-11-25T17:45:01.741Z,1005.23
2022-11-25T17:50:01.922Z,1005.31
2022-11-25T17:55:02.106Z,1005.47
2022-11-25T18:00:01.968Z,1005.68
2022-11-25T18:05:02.233Z,1005.83
2022-11-25T18:10:01.578Z,1005.85
2022-11-25T18:15:02.114Z,1005.88
2022-11-25T18:20:02.339Z,1006.02
2022-11-25T18:25:07.991Z,1006.05
2022-11-25T18:30:01.473Z,1006.04
2022-11-25T18:35:01.798Z,1006.19
2022-11-25T18:40:02.112Z,1006.26
2022-11-25T18:45:02.207Z,1006.28
2022-11-25T18:50:01.716Z,1006.33
2022-11-25T18:55:02.033Z,1006.44
2022-11-25T19:00:24.767Z,1006.53
2022-11-25T19:05:01.934Z,1006.52
2022-11-25T19:10:02.182Z,1006.69
2022-11-25T19:15:02.321Z,1006.7
2022-11-25T19:20:01.535Z,1006.81
2022-11-25T19:25:01.972Z,1006.93
2022-11-25T19:30:01.887Z,1006.91
2022-11-25T19:35:01.942Z,1006.98
2022-11-25T19:40:02.377Z,1007
2022-11-25T19:45:02.428Z,1007.13
2022-11-25T19:50:02.072Z,1007.18
2022-11-25T19:55:01.638Z,1007.21
2022-11-25T20:00:02.307Z,1007.31
2022-11-25T20:05:01.599Z,1007.42
2022-11-25T20:10:01.852Z,1007.54
2022-11-25T20:15:01.908Z,1007.66
2022-11-25T20:20:02.386Z,1007.78
2022-11-25T20:25:01.748Z,1007.81
2022-11-25T20:30:02.361Z,1007.87
2022-11-25T20:35:02.061Z,1007.93
2022-11-25T20:40:01.904Z,1008.04
2022-11-25T20:45:01.964Z,1008.11
2022-11-25T20:50:02.193Z,1008.12
2022-11-25T20:55:02.092Z,1008.18
2022-11-25T21:00:02.220Z,1008.2
2022-11-25T21:05:01.586Z,1008.29
2022-11-25T21:10:02.249Z,1008.28
2022-11-25T21:15:02.432Z,1008.32
2022-11-25T21:20:02.109Z,1008.46
2022-11-25T21:25:02.249Z,1008.51
2022-11-25T21:30:02.437Z,1008.61
2022-11-25T21:35:01.978Z,1008.73
2022-11-25T21:40:02.243Z,1008.78
2022-11-25T21:45:02.189Z,1008.93
2022-11-25T21:50:01.894Z,1008.93
2022-11-25T21:55:02.133Z,1008.99
2022-11-25T22:00:01.749Z,1008.99
2022-11-25T22:05:01.487Z,1009.09
2022-11-25T22:10:02.284Z,1009.06
2022-11-25T22:15:02.369Z,1009.17
2022-11-25T22:20:02.387Z,1009.25
2022-11-25T22:25:01.516Z,1009.29
2022-11-25T22:30:01.915Z,1009.31
2022-11-25T22:35:02.250Z,1009.33
2022-11-25T22:40:01.997Z,1009.35
2022-11-25T22:45:01.740Z,1009.38
2022-11-25T22:50:01.789Z,1009.46
2022-11-25T22:55:01.675Z,1009.59
2022-11-25T23:00:02.027Z,1009.63
2022-11-25T23:05:01.866Z,1009.7
2022-11-25T23:10:02.123Z,1009.78
2022-11-25T23:15:02.072Z,1009.8
2022-11-25T23:20:02.193Z,1009.84
2022-11-25T23:25:02.174Z,1009.89
2022-11-25T23:30:02.339Z,1009.93
2022-11-25T23:35:02.089Z,1010
2022-11-25T23:40:02.024Z,1010.15
2022-11-25T23:45:01.539Z,1010.11
2022-11-25T23:50:01.562Z,1010.15
2022-11-25T23:55:01.907Z,1010.23
